createdAt,value
2022-08-22T00:00:49.914Z,16.65
2022-08-22T00:02:42.244Z,21.34
2022-08-22T00:03:28.090Z,16.64
2022-08-22T00:06:25.718Z,16.61
2022-08-22T00:08:58.303Z,16.57
2022-08-22T00:11:41.009Z,16.53
2022-08-22T00:14:14.002Z,16.52
2022-08-22T00:17:08.014Z,16.49
2022-08-22T00:21:51.351Z,16.45
2022-08-22T00:24:17.865Z,16.43
2022-08-22T00:26:51.972Z,16.43
2022-08-22T00:29:25.245Z,16.38
2022-08-22T00:32:04.285Z,16.36
2022-08-22T00:34:40.185Z,16.35
2022-08-22T00:37:24.702Z,16.33
2022-08-22T00:40:03.498Z,16.32
2022-08-22T00:42:49.152Z,16.31
2022-08-22T00:45:53.339Z,16.28
2022-08-22T00:48:51.880Z,16.27
2022-08-22T00:51:25.396Z,16.27
2022-08-22T00:54:06.917Z,16.26
2022-08-22T00:56:52.207Z,16.25
2022-08-22T00:59:36.997Z,16.25
2022-08-22T01:02:10.784Z,16.23
2022-08-22T01:04:43.324Z,16.22
2022-08-22T01:07:38.239Z,16.21
2022-08-22T01:10:47.010Z,16.19
2022-08-22T01:13:35.413Z,16.17
2022-08-22T01:16:16.110Z,16.11
2022-08-22T01:19:20.353Z,16.08
2022-08-22T01:21:58.033Z,16.07
2022-08-22T01:25:07.163Z,16.06
2022-08-22T01:28:06.005Z,16.05
2022-08-22T01:30:50.501Z,16.00
2022-08-22T01:33:41.321Z,16.01
2022-08-22T01:36:29.546Z,16.02
2022-08-22T01:39:18.561Z,16.06
2022-08-22T01:42:00.269Z,16.10
2022-08-22T01:44:47.966Z,16.12
2022-08-22T01:47:23.650Z,16.16
2022-08-22T01:50:00.545Z,16.20
2022-08-22T01:52:37.107Z,16.24
2022-08-22T01:55:32.453Z,16.28
2022-08-22T01:58:14.322Z,16.34
2022-08-22T02:01:02.040Z,16.36
2022-08-22T02:03:40.063Z,16.39
2022-08-22T02:06:16.927Z,16.45
2022-08-22T02:09:07.210Z,16.45
2022-08-22T02:11:37.438Z,16.46
2022-08-22T02:14:17.347Z,16.51
2022-08-22T02:16:48.237Z,16.52
2022-08-22T02:22:53.344Z,16.48
2022-08-22T02:25:26.032Z,16.51
2022-08-22T02:28:00.609Z,16.50
2022-08-22T02:30:44.004Z,16.51
2022-08-22T02:33:21.442Z,16.53
2022-08-22T02:36:04.331Z,16.57
2022-08-22T02:38:42.802Z,16.63
2022-08-22T02:41:21.873Z,16.68
2022-08-22T02:43:51.090Z,16.74
2022-08-22T02:46:23.013Z,16.76
2022-08-22T02:49:09.469Z,16.82
2022-08-22T02:52:21.381Z,16.87
2022-08-22T02:55:08.231Z,16.91
2022-08-22T02:57:57.430Z,16.95
2022-08-22T03:00:31.335Z,16.96
2022-08-22T03:03:05.606Z,16.98
2022-08-22T03:05:38.372Z,16.99
2022-08-22T03:08:16.936Z,16.99
2022-08-22T03:10:50.432Z,17.02
2022-08-22T03:13:25.955Z,17.12
2022-08-22T03:16:03.378Z,17.20
2022-08-22T03:18:41.848Z,17.37
2022-08-22T03:21:33.945Z,17.44
2022-08-22T03:24:32.986Z,17.51
2022-08-22T03:27:33.539Z,17.41
2022-08-22T03:30:06.184Z,17.26
2022-08-22T03:32:59.523Z,17.18
2022-08-22T03:35:32.441Z,17.06
2022-08-22T03:38:39.038Z,16.98
2022-08-22T03:41:27.451Z,16.87
2022-08-22T03:44:21.882Z,16.82
2022-08-22T03:47:23.185Z,16.77
2022-08-22T03:50:17.810Z,16.75
2022-08-22T03:53:18.753Z,16.72
2022-08-22T03:56:13.816Z,16.71
2022-08-22T03:59:10.008Z,16.71
2022-08-22T04:01:58.998Z,16.74
2022-08-22T04:04:47.074Z,16.77
2022-08-22T04:07:36.155Z,16.81
2022-08-22T04:10:27.138Z,16.88
2022-08-22T04:13:13.950Z,16.95
2022-08-22T04:15:52.859Z,17.02
2022-08-22T04:18:38.013Z,17.08
2022-08-22T04:23:49.529Z,17.16
2022-08-22T04:26:26.048Z,17.26
2022-08-22T04:28:59.043Z,17.35
2022-08-22T04:31:36.843Z,17.46
2022-08-22T04:34:11.907Z,17.58
2022-08-22T04:36:46.085Z,17.72
2022-08-22T04:39:20.458Z,17.82
2022-08-22T04:41:50.422Z,17.94
2022-08-22T04:44:30.320Z,18.07
2022-08-22T04:47:06.321Z,18.21
2022-08-22T04:49:41.931Z,18.33
2022-08-22T04:52:53.568Z,18.51
2022-08-22T04:55:33.095Z,18.68
2022-08-22T04:58:38.523Z,18.82
2022-08-22T05:01:14.896Z,18.90
2022-08-22T05:03:49.698Z,18.98
2022-08-22T05:06:19.977Z,19.08
2022-08-22T05:08:53.739Z,19.05
2022-08-22T05:11:23.811Z,19.10
2022-08-22T05:13:56.982Z,19.19
2022-08-22T05:16:28.516Z,19.26
2022-08-22T05:19:03.001Z,19.21
2022-08-22T05:21:35.556Z,19.29
2022-08-22T05:24:09.464Z,19.31
2022-08-22T05:26:47.344Z,19.27
2022-08-22T05:29:20.314Z,19.30
2022-08-22T05:31:52.771Z,19.35
2022-08-22T05:34:24.234Z,19.44
2022-08-22T05:36:59.777Z,19.40
2022-08-22T05:39:28.352Z,19.43
2022-08-22T05:41:57.089Z,19.47
2022-08-22T05:44:37.819Z,19.55
2022-08-22T05:47:23.709Z,19.62
2022-08-22T05:50:02.702Z,19.66
2022-08-22T05:52:41.535Z,19.63
2022-08-22T05:55:16.941Z,19.61
2022-08-22T05:57:50.598Z,19.74
2022-08-22T06:00:25.765Z,19.85
2022-08-22T06:02:58.358Z,19.94
2022-08-22T06:05:29.587Z,20.15
2022-08-22T06:08:17.285Z,20.26
2022-08-22T06:10:48.374Z,20.41
2022-08-22T06:13:32.777Z,20.62
2022-08-22T06:16:24.997Z,20.97
2022-08-22T06:18:52.868Z,21.46
2022-08-22T06:24:39.582Z,22.94
2022-08-22T06:27:13.388Z,23.65
2022-08-22T06:29:46.910Z,24.16
2022-08-22T06:32:44.436Z,24.63
2022-08-22T06:35:19.611Z,24.58
2022-08-22T06:37:51.331Z,24.53
2022-08-22T06:40:21.405Z,24.51
2022-08-22T06:42:51.190Z,24.66
2022-08-22T06:45:28.410Z,25.01
2022-08-22T06:48:15.594Z,25.64
2022-08-22T06:50:45.643Z,26.14
2022-08-22T06:53:17.952Z,26.86
2022-08-22T06:55:57.393Z,27.51
2022-08-22T06:58:34.279Z,27.83
2022-08-22T07:01:11.729Z,27.76
2022-08-22T07:03:50.321Z,27.69
2022-08-22T07:06:21.147Z,28.10
2022-08-22T07:08:53.841Z,28.68
2022-08-22T07:11:28.047Z,28.99
2022-08-22T07:14:07.888Z,29.20
2022-08-22T07:16:39.806Z,29.50
2022-08-22T07:19:08.511Z,29.83
2022-08-22T07:21:45.130Z,29.53
2022-08-22T07:24:17.926Z,28.71
2022-08-22T07:27:08.948Z,27.86
2022-08-22T07:29:44.267Z,26.96
2022-08-22T07:32:20.472Z,26.09
2022-08-22T07:34:53.640Z,25.79
2022-08-22T07:37:36.751Z,25.18
2022-08-22T07:40:27.496Z,24.96
2022-08-22T07:43:08.752Z,25.07
2022-08-22T07:45:52.475Z,25.22
2022-08-22T07:48:59.488Z,25.27
2022-08-22T07:51:33.742Z,25.25
2022-08-22T07:54:05.645Z,25.05
2022-08-22T07:56:56.366Z,25.10
2022-08-22T07:59:24.713Z,25.32
2022-08-22T08:01:54.795Z,25.58
2022-08-22T08:04:27.299Z,25.83
2022-08-22T08:06:58.794Z,25.89
2022-08-22T08:09:30.482Z,26.09
2022-08-22T08:12:03.926Z,26.90
2022-08-22T08:14:31.389Z,27.56
2022-08-22T08:17:14.954Z,28.41
2022-08-22T08:19:43.553Z,28.92
2022-08-22T08:26:17.569Z,29.18
2022-08-22T08:28:50.049Z,29.06
2022-08-22T08:31:27.541Z,28.99
2022-08-22T08:34:10.940Z,29.44
2022-08-22T08:36:48.521Z,29.72
2022-08-22T08:39:18.450Z,30.11
2022-08-22T08:42:07.348Z,30.11
2022-08-22T08:45:01.587Z,29.92
2022-08-22T08:47:49.754Z,29.13
2022-08-22T08:50:45.146Z,29.03
2022-08-22T08:53:35.502Z,28.93
2022-08-22T08:56:19.978Z,28.74
2022-08-22T08:58:59.962Z,28.47
2022-08-22T09:01:44.939Z,28.39
2022-08-22T09:04:45.654Z,29.07
2022-08-22T09:07:33.108Z,29.80
2022-08-22T09:10:39.294Z,30.43
2022-08-22T09:13:34.614Z,30.44
2022-08-22T09:16:32.316Z,30.64
2022-08-22T09:19:17.106Z,30.90
2022-08-22T09:21:49.989Z,30.42
2022-08-22T09:24:42.668Z,30.21
2022-08-22T09:27:18.593Z,30.03
2022-08-22T09:30:08.875Z,29.33
2022-08-22T09:32:54.803Z,28.85
2022-08-22T09:35:53.364Z,28.40
2022-08-22T09:38:31.599Z,28.57
2022-08-22T09:41:23.552Z,28.16
2022-08-22T09:44:22.578Z,28.53
2022-08-22T09:46:55.974Z,28.77
2022-08-22T09:49:54.367Z,29.09
2022-08-22T09:52:50.605Z,29.13
2022-08-22T09:55:39.666Z,28.87
2022-08-22T09:58:12.235Z,28.98
2022-08-22T10:00:47.732Z,28.81
2022-08-22T10:03:46.824Z,29.16
2022-08-22T10:06:20.841Z,28.87
2022-08-22T10:09:08.868Z,28.74
2022-08-22T10:11:43.517Z,28.54
2022-08-22T10:14:15.650Z,28.41
2022-08-22T10:17:13.637Z,28.00
2022-08-22T10:19:58.991Z,27.86
2022-08-22T10:23:00.043Z,27.45
2022-08-22T10:26:56.194Z,27.08
2022-08-22T10:29:26.184Z,26.86
2022-08-22T10:32:07.721Z,26.94
2022-08-22T10:34:47.340Z,27.05
2022-08-22T10:37:30.556Z,27.04
2022-08-22T10:40:26.954Z,27.18
2022-08-22T10:43:08.140Z,27.27
2022-08-22T10:45:40.682Z,27.01
2022-08-22T10:48:30.506Z,26.90
2022-08-22T10:51:22.729Z,27.19
2022-08-22T10:54:14.887Z,27.19
2022-08-22T10:57:26.915Z,26.86
2022-08-22T11:00:01.040Z,26.50
2022-08-22T11:02:27.725Z,26.21
2022-08-22T11:05:06.452Z,26.08
2022-08-22T11:07:57.029Z,25.84
2022-08-22T11:11:01.679Z,25.51
2022-08-22T11:13:43.503Z,25.25
2022-08-22T11:16:16.293Z,25.12
2022-08-22T11:19:02.133Z,25.16
2022-08-22T11:22:07.058Z,25.08
2022-08-22T11:24:56.494Z,24.96
2022-08-22T11:27:45.417Z,24.81
2022-08-22T11:30:30.271Z,24.65
2022-08-22T11:33:33.920Z,24.52
2022-08-22T11:36:26.956Z,24.43
2022-08-22T11:39:24.397Z,24.46
2022-08-22T11:42:12.663Z,24.51
2022-08-22T11:44:54.417Z,24.46
2022-08-22T11:47:28.081Z,24.46
2022-08-22T11:50:06.965Z,24.55
2022-08-22T11:52:55.288Z,24.49
2022-08-22T11:55:37.617Z,24.64
2022-08-22T11:58:13.360Z,24.68
2022-08-22T12:00:59.829Z,24.71
2022-08-22T12:03:59.726Z,24.84
2022-08-22T12:06:48.546Z,24.97
2022-08-22T12:09:41.682Z,25.12
2022-08-22T12:12:17.030Z,25.07
2022-08-22T12:15:05.381Z,25.32
2022-08-22T12:18:15.315Z,25.42
2022-08-22T12:21:21.561Z,25.52
2022-08-22T12:27:56.862Z,25.75
2022-08-22T12:30:37.535Z,25.95
2022-08-22T12:33:33.945Z,26.10
2022-08-22T12:36:18.091Z,26.23
2022-08-22T12:39:18.968Z,26.24
2022-08-22T12:41:48.443Z,26.34
2022-08-22T12:44:46.853Z,26.51
2022-08-22T12:47:55.423Z,26.70
2022-08-22T12:50:44.766Z,26.70
2022-08-22T12:53:20.453Z,26.83
2022-08-22T12:56:10.318Z,27.07
2022-08-22T12:58:55.137Z,27.22
2022-08-22T13:01:34.233Z,27.19
2022-08-22T13:04:08.321Z,27.06
2022-08-22T13:06:35.606Z,27.09
2022-08-22T13:09:09.889Z,26.93
2022-08-22T13:11:41.823Z,26.95
2022-08-22T13:14:12.099Z,26.85
2022-08-22T13:16:51.219Z,26.83
2022-08-22T13:19:25.538Z,26.85
2022-08-22T13:21:59.301Z,26.69
2022-08-22T13:24:40.715Z,26.61
2022-08-22T13:27:25.166Z,26.39
2022-08-22T13:30:06.356Z,26.29
2022-08-22T13:32:39.583Z,26.21
2022-08-22T13:35:23.998Z,26.23
2022-08-22T13:37:56.427Z,26.11
2022-08-22T13:40:29.622Z,26.16
2022-08-22T13:43:05.680Z,26.10
2022-08-22T13:45:37.280Z,26.14
2022-08-22T13:48:15.681Z,25.99
2022-08-22T13:51:12.172Z,25.86
2022-08-22T13:53:49.894Z,25.75
2022-08-22T13:57:14.582Z,25.64
2022-08-22T13:59:59.463Z,25.57
2022-08-22T14:02:48.947Z,25.59
2022-08-22T14:05:48.244Z,25.64
2022-08-22T14:08:25.799Z,25.69
2022-08-22T14:11:01.394Z,25.77
2022-08-22T14:13:59.374Z,25.88
2022-08-22T14:16:27.566Z,25.96
2022-08-22T14:19:05.898Z,26.05
2022-08-22T14:21:41.601Z,26.14
2022-08-22T14:24:45.688Z,26.13
2022-08-22T14:28:35.749Z,26.14
2022-08-22T14:31:13.464Z,25.99
2022-08-22T14:34:07.809Z,25.57
2022-08-22T14:36:48.012Z,25.02
2022-08-22T14:39:43.575Z,24.13
2022-08-22T14:42:44.342Z,23.67
2022-08-22T14:45:18.499Z,23.29
2022-08-22T14:48:14.501Z,22.94
2022-08-22T14:50:53.042Z,22.56
2022-08-22T14:53:19.760Z,22.33
2022-08-22T14:55:57.656Z,22.24
2022-08-22T14:58:27.555Z,22.28
2022-08-22T15:00:56.799Z,22.21
2022-08-22T15:03:32.445Z,22.30
2022-08-22T15:06:10.993Z,22.33
2022-08-22T15:08:50.572Z,22.37
2022-08-22T15:11:25.571Z,22.39
2022-08-22T15:14:04.458Z,22.37
2022-08-22T15:17:01.678Z,22.38
2022-08-22T15:19:36.287Z,22.41
2022-08-22T15:22:25.711Z,22.44
2022-08-22T15:24:57.268Z,22.50
2022-08-22T15:27:26.036Z,22.51
2022-08-22T15:30:02.570Z,22.54
2022-08-22T15:32:31.954Z,22.56
2022-08-22T15:35:09.458Z,22.50
2022-08-22T15:38:01.439Z,22.50
2022-08-22T15:40:43.753Z,22.40
2022-08-22T15:43:20.497Z,22.26
2022-08-22T15:45:49.139Z,22.20
2022-08-22T15:48:33.783Z,22.10
2022-08-22T15:51:09.221Z,22.02
2022-08-22T15:53:45.499Z,21.99
2022-08-22T15:56:12.067Z,21.97
2022-08-22T15:58:48.890Z,21.93
2022-08-22T16:01:23.701Z,21.87
2022-08-22T16:04:06.720Z,21.85
2022-08-22T16:06:45.257Z,21.89
2022-08-22T16:09:39.204Z,21.92
2022-08-22T16:12:12.608Z,21.87
2022-08-22T16:14:42.131Z,21.91
2022-08-22T16:17:30.555Z,21.88
2022-08-22T16:20:26.336Z,21.88
2022-08-22T16:22:58.934Z,21.88
2022-08-22T16:25:50.360Z,21.92
2022-08-22T16:29:41.483Z,21.94
2022-08-22T16:32:11.481Z,21.98
2022-08-22T16:34:37.977Z,21.98
2022-08-22T16:37:25.662Z,22.03
2022-08-22T16:39:58.738Z,22.06
2022-08-22T16:42:29.869Z,22.04
2022-08-22T16:45:11.689Z,22.04
2022-08-22T16:47:43.307Z,22.05
2022-08-22T16:50:19.229Z,22.04
2022-08-22T16:53:20.811Z,21.97
2022-08-22T16:56:15.056Z,21.97
2022-08-22T16:59:23.033Z,22.00
2022-08-22T17:02:08.529Z,21.98
2022-08-22T17:05:02.779Z,21.97
2022-08-22T17:07:51.447Z,21.94
2022-08-22T17:10:38.656Z,21.92
2022-08-22T17:13:26.446Z,21.95
2022-08-22T17:16:22.308Z,21.93
2022-08-22T17:19:25.464Z,21.84
2022-08-22T17:22:00.020Z,21.74
2022-08-22T17:24:39.370Z,21.63
2022-08-22T17:27:15.220Z,21.51
2022-08-22T17:29:45.050Z,21.48
2022-08-22T17:32:33.654Z,21.39
2022-08-22T17:35:03.207Z,21.31
2022-08-22T17:38:03.986Z,21.21
2022-08-22T17:40:45.849Z,21.11
2022-08-22T17:43:33.457Z,21.03
2022-08-22T17:46:54.328Z,20.88
2022-08-22T17:49:38.822Z,20.82
2022-08-22T17:52:20.052Z,20.80
2022-08-22T17:55:05.872Z,20.81
2022-08-22T17:57:39.061Z,20.81
2022-08-22T18:00:15.433Z,20.80
2022-08-22T18:02:50.939Z,20.80
2022-08-22T18:05:23.153Z,20.77
2022-08-22T18:08:01.945Z,20.78
2022-08-22T18:10:56.573Z,20.79
2022-08-22T18:13:51.421Z,20.78
2022-08-22T18:16:35.831Z,20.80
2022-08-22T18:19:32.968Z,20.82
2022-08-22T18:22:35.222Z,20.80
2022-08-22T18:25:20.596Z,20.79
2022-08-22T18:31:22.846Z,20.83
2022-08-22T18:33:58.428Z,20.88
2022-08-22T18:36:35.371Z,20.92
2022-08-22T18:39:21.941Z,20.98
2022-08-22T18:42:02.617Z,20.95
2022-08-22T18:44:33.321Z,20.95
2022-08-22T18:47:12.355Z,20.96
2022-08-22T18:49:43.534Z,20.94
2022-08-22T18:52:10.325Z,20.94
2022-08-22T18:55:15.853Z,20.95
2022-08-22T18:58:13.671Z,20.87
2022-08-22T19:00:51.376Z,20.85
2022-08-22T19:03:58.738Z,20.83
2022-08-22T19:06:53.012Z,20.83
2022-08-22T19:09:25.849Z,20.80
2022-08-22T19:12:25.239Z,20.74
2022-08-22T19:15:07.311Z,20.70
2022-08-22T19:18:01.376Z,20.63
2022-08-22T19:20:56.349Z,20.64
2022-08-22T19:23:40.702Z,20.57
2022-08-22T19:26:38.024Z,20.60
2022-08-22T19:29:30.012Z,20.56
2022-08-22T19:31:59.918Z,20.50
2022-08-22T19:34:30.532Z,20.49
2022-08-22T19:37:33.150Z,20.49
2022-08-22T19:40:07.657Z,20.47
2022-08-22T19:42:36.761Z,20.42
2022-08-22T19:45:22.191Z,20.41
2022-08-22T19:47:57.013Z,20.43
2022-08-22T19:50:30.893Z,20.39
2022-08-22T19:53:10.602Z,20.37
2022-08-22T19:55:39.807Z,20.29
2022-08-22T19:58:31.931Z,20.28
2022-08-22T20:01:08.980Z,20.26
2022-08-22T20:03:58.931Z,20.23
2022-08-22T20:06:44.592Z,20.18
2022-08-22T20:09:26.930Z,20.15
2022-08-22T20:12:33.051Z,20.10
2022-08-22T20:15:22.086Z,20.05
2022-08-22T20:20:55.808Z,19.94
2022-08-22T20:23:31.484Z,19.85
2022-08-22T20:25:59.295Z,19.83
2022-08-22T20:34:22.956Z,19.74
2022-08-22T20:37:16.135Z,19.69
2022-08-22T20:40:00.004Z,19.68
2022-08-22T20:42:32.819Z,19.64
2022-08-22T20:45:12.245Z,19.61
2022-08-22T20:47:41.698Z,19.61
2022-08-22T20:50:12.163Z,19.58
2022-08-22T20:52:51.863Z,19.59
2022-08-22T20:55:31.353Z,19.58
2022-08-22T20:58:25.553Z,19.60
2022-08-22T21:00:55.000Z,19.58
2022-08-22T21:03:42.536Z,19.61
2022-08-22T21:06:15.182Z,19.66
2022-08-22T21:08:43.686Z,19.69
2022-08-22T21:11:42.564Z,19.70
2022-08-22T21:14:23.967Z,19.77
2022-08-22T21:16:53.819Z,19.77
2022-08-22T21:19:26.146Z,19.78
2022-08-22T21:21:53.539Z,19.75
2022-08-22T21:24:23.443Z,19.77
2022-08-22T21:26:58.747Z,19.75
2022-08-22T21:29:32.728Z,19.71
2022-08-22T21:32:32.912Z,19.72
2022-08-22T21:35:01.684Z,19.73
2022-08-22T21:37:39.916Z,19.73
2022-08-22T21:40:17.841Z,19.74
2022-08-22T21:43:06.794Z,19.75
2022-08-22T21:45:44.503Z,19.79
2022-08-22T21:48:39.402Z,19.78
2022-08-22T21:51:42.098Z,19.80
2022-08-22T21:54:31.338Z,19.79
2022-08-22T21:57:10.926Z,19.84
2022-08-22T21:59:59.489Z,19.83
2022-08-22T22:02:44.559Z,19.81
2022-08-22T22:05:14.140Z,19.79
2022-08-22T22:07:43.606Z,19.81
2022-08-22T22:10:12.823Z,19.79
2022-08-22T22:12:44.525Z,19.78
2022-08-22T22:15:18.299Z,19.79
2022-08-22T22:17:45.177Z,19.78
2022-08-22T22:20:13.030Z,19.79
2022-08-22T22:22:46.000Z,19.74
2022-08-22T22:25:41.324Z,19.75
2022-08-22T22:28:16.316Z,19.73
2022-08-22T22:32:34.466Z,19.74
2022-08-22T22:35:01.138Z,19.78
2022-08-22T22:37:28.240Z,19.81
2022-08-22T22:39:55.463Z,19.86
2022-08-22T22:42:22.576Z,19.92
2022-08-22T22:44:49.507Z,19.94
2022-08-22T22:47:16.125Z,19.91
2022-08-22T22:49:44.822Z,19.85
2022-08-22T22:52:11.686Z,19.76
2022-08-22T22:54:38.427Z,19.66
2022-08-22T22:57:07.865Z,19.61
2022-08-22T22:59:39.558Z,19.48
2022-08-22T23:02:19.523Z,19.45
2022-08-22T23:04:50.108Z,19.42
2022-08-22T23:07:18.417Z,19.45
2022-08-22T23:09:45.377Z,19.38
2022-08-22T23:12:13.860Z,19.35
2022-08-22T23:14:40.911Z,19.41
2022-08-22T23:17:07.550Z,19.39
2022-08-22T23:19:34.576Z,19.33
2022-08-22T23:22:01.524Z,19.30
2022-08-22T23:24:31.253Z,19.22
2022-08-22T23:26:59.157Z,19.22
2022-08-22T23:29:26.295Z,19.19
2022-08-22T23:31:56.454Z,19.14
2022-08-22T23:34:27.060Z,19.09
2022-08-22T23:36:56.250Z,19.18
2022-08-22T23:39:25.181Z,19.09
2022-08-22T23:41:52.360Z,19.08
2022-08-22T23:44:23.585Z,19.07
2022-08-22T23:46:51.103Z,19.02
2022-08-22T23:49:18.511Z,19.10
2022-08-22T23:51:45.406Z,19.11
2022-08-22T23:54:12.777Z,19.12
2022-08-22T23:56:44.557Z,19.14
2022-08-22T23:59:14.473Z,19.15
